Time;durP1;ratioP1;P1;durP2;ratioP2;P2;SDS_P1;SDS_P2;PMS_P1;PMS_P2;Temp;Humidity;BMP_temperature;BMP_pressure;BME280_temperature;BME280_humidity;BME280_pressure;Samples;Min_cycle;Max_cycle;Signal;HPM_P1;HPM_P2
2023/10/25 00:04:04;;;;;;;4.95;4.30;;;;;;;12.38;96.38;99035.81;10343429;28;20238;-73
2023/10/25 00:09:05;;;;;;;5.22;4.72;;;;;;;12.38;96.63;99026.97;10359961;28;20084;-73
2023/10/25 00:14:08;;;;;;;6.63;4.78;;;;;;;12.35;96.10;99022.78;10356448;28;20049;-73
2023/10/25 00:19:10;;;;;;;5.13;4.68;;;;;;;12.35;95.95;99030.78;10354534;28;20196;-73
2023/10/25 00:24:11;;;;;;;4.97;4.53;;;;;;;12.34;95.25;99038.94;10358291;28;20373;-73
2023/10/25 00:29:13;;;;;;;5.80;4.65;;;;;;;12.31;95.21;99031.28;10354600;28;20060;-74
2023/10/25 00:34:15;;;;;;;5.97;4.95;;;;;;;12.26;94.21;99031.78;10342409;28;20050;-73
2023/10/25 00:39:16;;;;;;;7.95;5.20;;;;;;;12.20;95.40;99027.09;10356867;28;20114;-73
2023/10/25 00:44:18;;;;;;;6.90;6.20;;;;;;;12.20;95.59;99033.28;10353384;28;20097;-73
2023/10/25 00:49:19;;;;;;;7.03;5.65;;;;;;;12.13;95.60;99036.75;10354844;28;20045;-73
2023/10/25 00:54:21;;;;;;;8.32;7.20;;;;;;;12.08;95.36;99028.41;10359885;28;20057;-73
2023/10/25 00:59:23;;;;;;;7.78;7.07;;;;;;;12.06;96.28;99025.91;10356262;28;20150;-73
2023/10/25 01:04:24;;;;;;;8.20;7.05;;;;;;;12.01;97.21;99028.25;10340121;28;20084;-74
2023/10/25 01:09:28;;;;;;;8.32;7.53;;;;;;;12.09;97.52;99027.44;10351465;28;20049;-73
2023/10/25 01:14:31;;;;;;;8.65;7.75;;;;;;;12.07;97.09;99013.41;10353429;28;20060;-72
2023/10/25 01:19:32;;;;;;;7.60;6.85;;;;;;;12.09;96.72;99003.41;10355058;28;20930;-73
2023/10/25 01:24:34;;;;;;;8.77;7.90;;;;;;;12.10;96.44;99002.41;10335425;28;20045;-73
2023/10/25 01:29:35;;;;;;;8.65;7.82;;;;;;;12.09;96.69;99006.09;10353254;28;20678;-73
2023/10/25 01:34:37;;;;;;;11.23;9.57;;;;;;;12.07;97.03;99016.91;10353015;28;20473;-72
2023/10/25 01:39:38;;;;;;;10.02;9.07;;;;;;;11.98;96.60;99024.06;10354654;28;20115;-73
2023/10/25 01:44:40;;;;;;;10.55;9.45;;;;;;;11.92;97.52;99008.69;10355865;28;20057;-73
2023/10/25 01:49:43;;;;;;;10.50;9.50;;;;;;;11.90;98.39;99015.16;10355920;28;20136;-76
2023/10/25 01:54:50;;;;;;;11.90;10.40;;;;;;;11.91;98.26;99009.66;10356520;28;20132;-73
2023/10/25 01:59:52;;;;;;;10.20;9.20;;;;;;;11.91;98.19;99012.34;10352631;28;20155;-73
2023/10/25 02:04:53;;;;;;;10.57;9.48;;;;;;;11.94;98.25;99006.72;10352712;28;20054;-73
2023/10/25 02:09:55;;;;;;;10.40;9.40;;;;;;;11.95;97.63;98995.06;10352310;28;20056;-73
2023/10/25 02:14:56;;;;;;;11.77;10.68;;;;;;;11.95;97.63;99003.06;10341127;28;20081;-73
2023/10/25 02:19:58;;;;;;;12.57;9.90;;;;;;;11.92;97.23;99007.81;10334661;28;20683;-73
2023/10/25 02:24:59;;;;;;;11.02;9.93;;;;;;;11.91;97.95;98995.50;10357404;28;20060;-73
2023/10/25 02:30:00;;;;;;;10.30;9.38;;;;;;;11.91;98.73;98991.00;10340578;28;20623;-73
2023/10/25 02:35:02;;;;;;;11.27;10.18;;;;;;;11.95;98.12;98981.72;10354838;28;20060;-73
2023/10/25 02:40:04;;;;;;;10.35;9.35;;;;;;;11.95;98.33;98987.06;10360078;28;20424;-73
2023/10/25 02:45:06;;;;;;;10.95;9.77;;;;;;;11.89;97.23;98977.00;10344004;28;20080;-73
2023/10/25 02:50:08;;;;;;;10.18;9.10;;;;;;;11.87;97.60;98973.66;10358355;28;20736;-72
2023/10/25 02:55:09;;;;;;;10.35;9.25;;;;;;;11.91;97.61;98961.66;10352646;28;20056;-73
2023/10/25 03:00:11;;;;;;;10.98;9.98;;;;;;;11.82;97.09;98973.31;10351846;28;20054;-73
2023/10/25 03:05:13;;;;;;;10.07;9.18;;;;;;;11.79;97.33;98960.31;10348394;28;20053;-73
2023/10/25 03:10:15;;;;;;;11.30;10.18;;;;;;;11.78;97.40;98948.81;10354771;28;20111;-73
2023/10/25 03:15:17;;;;;;;11.70;10.63;;;;;;;11.78;98.30;98945.31;10354711;28;20135;-73
2023/10/25 03:20:18;;;;;;;10.90;9.73;;;;;;;11.81;98.09;98943.16;10352831;28;20543;-73
2023/10/25 03:25:20;;;;;;;11.82;10.68;;;;;;;11.80;98.34;98938.81;10332238;28;20164;-73
2023/10/25 03:30:21;;;;;;;13.18;11.20;;;;;;;11.82;98.06;98944.81;10358932;28;20571;-73
2023/10/25 03:35:23;;;;;;;11.93;10.73;;;;;;;11.82;98.34;98939.50;10345278;28;20061;-72
2023/10/25 03:40:24;;;;;;;11.57;10.43;;;;;;;11.77;98.02;98938.31;10352569;28;20050;-72
2023/10/25 03:45:26;;;;;;;10.95;9.35;;;;;;;11.73;98.23;98929.81;10355679;28;20475;-72
2023/10/25 03:50:27;;;;;;;12.60;10.55;;;;;;;11.74;99.06;98928.81;10359382;28;20054;-73
2023/10/25 03:55:29;;;;;;;13.43;10.85;;;;;;;11.77;98.92;98935.63;10362603;28;20049;-72
2023/10/25 04:00:30;;;;;;;13.95;11.68;;;;;;;11.77;99.71;98930.31;10362368;28;20058;-73
2023/10/25 04:05:31;;;;;;;11.60;10.50;;;;;;;11.76;99.12;98929.47;10359776;28;20195;-71
2023/10/25 04:10:33;;;;;;;11.45;10.25;;;;;;;11.78;100.00;98906.16;10356726;28;20212;-73
2023/10/25 04:15:35;;;;;;;12.18;10.82;;;;;;;11.86;99.41;98902.69;10357592;28;21113;-72
2023/10/25 04:20:36;;;;;;;12.02;9.82;;;;;;;11.87;99.21;98895.50;10339139;28;20395;-73
2023/10/25 04:25:38;;;;;;;11.65;10.48;;;;;;;11.89;99.71;98896.16;10357392;28;20531;-73
2023/10/25 04:30:39;;;;;;;11.23;10.13;;;;;;;11.89;99.14;98890.84;10339888;28;20456;-73
2023/10/25 04:35:41;;;;;;;12.63;11.30;;;;;;;11.94;99.47;98884.03;10357465;28;20140;-73
2023/10/25 04:40:43;;;;;;;11.23;9.90;;;;;;;11.95;99.69;98876.88;10349504;28;20072;-73
2023/10/25 04:45:45;;;;;;;12.77;10.75;;;;;;;11.96;99.00;98867.88;10362092;28;20042;-73
2023/10/25 04:50:46;;;;;;;11.60;10.45;;;;;;;11.98;99.25;98858.72;10354381;28;20144;-73
2023/10/25 04:55:48;;;;;;;11.10;9.90;;;;;;;12.02;100.00;98854.72;10357802;28;20053;-73
2023/10/25 05:00:49;;;;;;;11.38;9.90;;;;;;;12.04;99.92;98846.56;10341944;28;20551;-72
2023/10/25 05:05:51;;;;;;;11.85;9.90;;;;;;;12.05;99.90;98847.38;10421682;23;20161;-71
2023/10/25 05:10:54;;;;;;;11.20;10.10;;;;;;;12.05;98.99;98836.72;10392114;28;20132;-67
2023/10/25 05:15:56;;;;;;;11.40;10.27;;;;;;;12.02;99.46;98840.53;10374873;28;20053;-68
2023/10/25 05:20:59;;;;;;;10.25;9.18;;;;;;;12.03;99.42;98835.03;10369388;28;20488;-68
2023/10/25 05:26:04;;;;;;;11.50;10.40;;;;;;;12.05;99.04;98848.19;10364445;28;20058;-69
2023/10/25 05:31:07;;;;;;;12.35;10.93;;;;;;;12.00;98.43;98834.56;10371624;28;20069;-70
2023/10/25 05:36:09;;;;;;;14.68;12.20;;;;;;;12.01;97.57;98826.38;10427524;28;20068;-69
2023/10/25 05:41:19;;;;;;;12.95;11.63;;;;;;;11.94;96.19;98830.72;10378496;28;20111;-71
2023/10/25 05:46:20;;;;;;;13.35;11.95;;;;;;;11.86;97.08;98817.38;10360321;28;20747;-70
2023/10/25 05:51:22;;;;;;;12.98;11.57;;;;;;;11.87;98.48;98824.34;10362100;28;20061;-68
2023/10/25 05:56:26;;;;;;;14.30;12.77;;;;;;;11.90;98.24;98834.66;10359247;28;20124;-69
2023/10/25 06:01:48;;;;;;;13.37;12.00;;;;;;;11.89;97.94;98838.34;10367021;28;20176;-71
2023/10/25 06:06:50;;;;;;;20.30;15.80;;;;;;;11.83;97.22;98833.69;10381384;28;20148;-71
2023/10/25 06:11:52;;;;;;;12.45;10.55;;;;;;;11.75;96.86;98825.69;10360718;28;20824;-69
2023/10/25 06:16:53;;;;;;;15.23;10.90;;;;;;;11.61;96.29;98819.19;10362271;28;20156;-70
2023/10/25 06:21:55;;;;;;;13.77;10.45;;;;;;;11.63;96.68;98826.03;10359612;28;20539;-69
2023/10/25 06:26:57;;;;;;;12.60;10.93;;;;;;;11.60;96.72;98829.00;10356740;28;20093;-70
2023/10/25 06:31:59;;;;;;;12.35;9.45;;;;;;;11.56;96.69;98813.50;10353800;28;20257;-68
2023/10/25 06:37:00;;;;;;;11.38;10.10;;;;;;;11.53;96.57;98812.00;10349897;28;21677;-70
2023/10/25 06:42:02;;;;;;;12.85;9.55;;;;;;;11.53;96.74;98808.50;10358196;28;20565;-72
2023/10/25 06:47:06;;;;;;;9.38;8.45;;;;;;;11.44;97.05;98792.50;10357074;28;20069;-70
2023/10/25 06:52:08;;;;;;;10.97;8.87;;;;;;;11.51;97.26;98790.00;10356630;28;20171;-71
2023/10/25 06:57:11;;;;;;;9.68;7.70;;;;;;;11.53;95.46;98774.72;10357988;28;20498;-72
2023/10/25 07:02:38;;;;;;;8.77;7.88;;;;;;;11.46;95.59;98779.03;10365837;28;20049;-71
2023/10/25 07:07:41;;;;;;;7.50;5.90;;;;;;;11.49;94.72;98794.69;10363269;28;20057;-69
2023/10/25 07:12:42;;;;;;;5.53;5.00;;;;;;;11.44;93.21;98781.84;10368971;28;20049;-68
2023/10/25 07:17:49;;;;;;;6.68;5.63;;;;;;;11.35;93.47;98772.19;10361137;28;20068;-72
2023/10/25 07:22:55;;;;;;;7.03;6.32;;;;;;;11.41;94.99;98750.22;10362354;28;20047;-72
2023/10/25 07:28:01;;;;;;;6.68;5.53;;;;;;;11.45;93.68;98743.56;10363324;28;20087;-72
2023/10/25 07:33:03;;;;;;;6.80;6.20;;;;;;;11.31;92.11;98734.38;10368445;28;20053;-71
2023/10/25 07:38:05;;;;;;;11.68;10.23;;;;;;;11.24;91.70;98716.56;10367248;28;20064;-71
2023/10/25 07:43:06;;;;;;;13.63;11.52;;;;;;;11.24;94.54;98722.72;10364285;28;20160;-70
2023/10/25 07:48:08;;;;;;;11.38;8.85;;;;;;;11.28;93.07;98718.72;10365286;28;20060;-75
2023/10/25 07:53:10;;;;;;;8.88;7.35;;;;;;;11.26;92.10;98710.09;10355163;28;20373;-69
2023/10/25 07:58:12;;;;;;;14.63;10.27;;;;;;;11.09;91.53;98698.59;10367486;28;20046;-69
2023/10/25 08:03:28;;;;;;;10.37;8.40;;;;;;;11.13;92.90;98693.75;10365908;28;20139;-69
2023/10/25 08:08:30;;;;;;;;;;;;;;;11.17;94.02;98681.78;10368225;28;20276;-69
2023/10/25 08:13:33;;;;;;;9.57;7.53;;;;;;;11.20;93.08;98689.44;10367382;28;19928;-70
2023/10/25 08:18:35;;;;;;;8.35;7.55;;;;;;;11.15;93.65;98691.75;10363809;28;20144;-67
2023/10/25 08:23:38;;;;;;;8.40;7.47;;;;;;;11.18;94.76;98680.75;10365974;28;20160;-71
2023/10/25 08:28:39;;;;;;;8.70;7.45;;;;;;;11.22;94.99;98675.97;10397778;28;20078;-75
2023/10/25 08:33:41;;;;;;;8.60;7.80;;;;;;;11.27;95.90;98674.47;10373970;28;20114;-73
2023/10/25 08:38:42;;;;;;;8.88;6.75;;;;;;;11.43;96.56;98662.94;10358635;28;20053;-69
2023/10/25 08:43:44;;;;;;;7.43;6.72;;;;;;;11.54;96.93;98658.28;10354679;28;20072;-71
2023/10/25 08:48:47;;;;;;;7.70;6.93;;;;;;;11.65;96.85;98650.78;10355428;28;20462;-70
2023/10/25 08:53:50;;;;;;;8.90;7.97;;;;;;;11.71;97.02;98643.09;10352885;28;20060;-68
2023/10/25 08:58:52;;;;;;;10.87;7.60;;;;;;;11.76;97.54;98627.44;10357268;28;20236;-69
2023/10/25 09:03:53;;;;;;;9.00;7.35;;;;;;;11.88;97.43;98625.22;10358294;28;21707;-72
2023/10/25 09:08:59;;;;;;;8.07;6.63;;;;;;;12.04;97.77;98587.88;10355811;28;20400;-73
2023/10/25 09:14:01;;;;;;;8.90;6.85;;;;;;;12.09;98.22;98574.00;10353059;28;20171;-74
2023/10/25 09:19:03;;;;;;;6.45;5.63;;;;;;;12.23;98.33;98561.75;10354303;28;20063;-72
2023/10/25 09:24:09;;;;;;;8.27;6.35;;;;;;;12.29;97.48;98569.88;10356246;28;20093;-71
2023/10/25 09:29:12;;;;;;;7.45;6.72;;;;;;;12.23;97.88;98567.91;10357861;28;20060;-72
2023/10/25 09:34:15;;;;;;;7.13;5.55;;;;;;;12.33;97.19;98560.53;10359688;28;20060;-71
2023/10/25 09:39:16;;;;;;;5.95;5.35;;;;;;;12.36;97.05;98557.50;10355836;28;20091;-76
2023/10/25 09:44:19;;;;;;;6.43;5.75;;;;;;;12.35;98.07;98563.00;10360626;28;20049;-71
2023/10/25 09:49:27;;;;;;;6.03;5.23;;;;;;;12.37;98.11;98553.84;10356317;28;20049;-73
2023/10/25 09:54:35;;;;;;;7.60;5.68;;;;;;;12.28;98.49;98538.03;10358875;28;20126;-70
2023/10/25 09:59:37;;;;;;;7.78;5.20;;;;;;;12.33;98.56;98535.69;10355122;28;20042;-76
2023/10/25 10:04:44;;;;;;;6.03;5.47;;;;;;;12.38;98.24;98527.97;10360047;28;20076;-74
2023/10/25 10:09:58;;;;;;;7.30;5.55;;;;;;;12.47;98.71;98515.41;10357610;28;20057;-73
2023/10/25 10:14:59;;;;;;;5.63;4.93;;;;;;;12.49;98.57;98508.03;10353922;28;20046;-71
2023/10/25 10:20:04;;;;;;;6.03;5.53;;;;;;;12.58;98.46;98501.66;10354587;28;21023;-73
2023/10/25 10:25:06;;;;;;;;;;;;;;;12.56;99.06;98498.31;10357803;28;20068;-71
2023/10/25 10:30:29;;;;;;;5.55;5.05;;;;;;;12.60;99.66;98480.94;10352947;28;20015;-73
2023/10/25 10:35:33;;;;;;;5.95;5.22;;;;;;;12.60;100.00;98474.78;10353828;28;20058;-74
2023/10/25 10:40:34;;;;;;;6.45;5.38;;;;;;;12.63;100.00;98459.22;10356152;28;20082;-71
2023/10/25 10:45:42;;;;;;;7.22;4.90;;;;;;;12.67;100.00;98451.69;10355215;28;20061;-72
2023/10/25 10:50:44;;;;;;;6.03;5.32;;;;;;;12.64;100.00;98439.53;10366536;28;20080;-73
2023/10/25 10:55:45;;;;;;;8.18;5.43;;;;;;;12.73;100.00;98426.94;10354251;28;20045;-76
2023/10/25 11:00:47;;;;;;;6.18;5.57;;;;;;;12.75;100.00;98402.75;10350913;28;20050;-74
2023/10/25 11:05:51;;;;;;;10.75;5.68;;;;;;;12.78;100.00;98389.03;10351940;28;20159;-74
2023/10/25 11:10:54;;;;;;;6.25;5.43;;;;;;;12.83;100.00;98371.41;10352519;28;20057;-74
2023/10/25 11:16:02;;;;;;;5.50;4.80;;;;;;;12.88;100.00;98353.03;10351386;28;20065;-75
2023/10/25 11:21:04;;;;;;;7.65;6.90;;;;;;;12.94;100.00;98348.78;10347882;28;20042;-71
2023/10/25 11:26:05;;;;;;;6.00;5.40;;;;;;;12.92;100.00;98332.09;10353523;28;20052;-70
2023/10/25 11:31:07;;;;;;;5.45;4.95;;;;;;;12.98;100.00;98326.03;10353391;28;20053;-71
2023/10/25 11:36:11;;;;;;;5.43;4.93;;;;;;;12.99;100.00;98319.66;10355974;28;20048;-73
2023/10/25 11:41:13;;;;;;;5.78;4.82;;;;;;;12.94;100.00;98292.72;10347952;28;20050;-72
2023/10/25 11:46:15;;;;;;;4.80;4.40;;;;;;;12.99;100.00;98274.28;10356165;28;20127;-70
2023/10/25 11:51:19;;;;;;;5.57;4.03;;;;;;;12.95;100.00;98267.66;10364468;28;20076;-70
2023/10/25 11:56:22;;;;;;;4.88;3.70;;;;;;;12.99;100.00;98270.78;10361943;28;20289;-73
2023/10/25 12:01:23;;;;;;;4.40;3.55;;;;;;;12.93;100.00;98247.50;10373093;28;20061;-75
2023/10/25 12:06:24;;;;;;;5.47;3.30;;;;;;;12.95;100.00;98246.28;10392497;28;20752;-71
2023/10/25 12:11:26;;;;;;;3.40;3.10;;;;;;;12.88;100.00;98240.03;10368136;28;20057;-70
2023/10/25 12:16:28;;;;;;;6.15;3.10;;;;;;;12.76;100.00;98220.19;10361883;28;20419;-73
2023/10/25 12:21:32;;;;;;;3.95;3.40;;;;;;;12.85;100.00;98208.38;10363499;28;20057;-69
2023/10/25 12:26:33;;;;;;;3.50;3.20;;;;;;;12.82;100.00;98203.41;10363394;28;20118;-72
2023/10/25 12:31:35;;;;;;;4.05;3.65;;;;;;;12.88;100.00;98189.28;10362465;28;20713;-72
2023/10/25 12:36:36;;;;;;;4.95;3.33;;;;;;;12.79;100.00;98167.25;10358048;28;20129;-71
2023/10/25 12:41:38;;;;;;;3.50;3.20;;;;;;;12.88;100.00;98157.25;10363033;28;20135;-71
2023/10/25 12:46:41;;;;;;;4.53;4.13;;;;;;;12.79;100.00;98145.03;10362336;28;20071;-72
2023/10/25 12:51:43;;;;;;;5.32;4.10;;;;;;;12.81;100.00;98135.03;10356752;28;20057;-73
2023/10/25 12:56:44;;;;;;;3.00;2.80;;;;;;;12.79;100.00;98134.38;10355865;28;20092;-70
2023/10/25 13:01:50;;;;;;;4.53;3.45;;;;;;;12.79;100.00;98118.34;10356760;28;20054;-72
2023/10/25 13:06:54;;;;;;;3.67;3.38;;;;;;;12.81;100.00;98101.13;10355471;28;20495;-71
2023/10/25 13:11:56;;;;;;;5.05;3.45;;;;;;;12.84;100.00;98102.59;10356937;28;20074;-70
2023/10/25 13:16:57;;;;;;;3.08;2.78;;;;;;;12.83;100.00;98082.25;10359152;28;20052;-73
2023/10/25 13:22:17;;;;;;;3.85;3.03;;;;;;;12.84;100.00;98083.91;10358763;28;20140;-71
2023/10/25 13:27:18;;;;;;;2.78;2.38;;;;;;;12.85;100.00;98093.56;10359070;28;20046;-73
2023/10/25 13:32:20;;;;;;;2.80;2.60;;;;;;;12.86;100.00;98071.19;10355639;28;20172;-71
2023/10/25 13:37:21;;;;;;;2.20;2.00;;;;;;;12.84;100.00;98063.38;10357311;28;20496;-71
2023/10/25 13:42:23;;;;;;;3.70;2.22;;;;;;;12.86;100.00;98052.50;10355005;28;20084;-74
2023/10/25 13:47:24;;;;;;;2.90;2.58;;;;;;;12.85;100.00;98049.03;10355424;28;20845;-72
2023/10/25 13:52:26;;;;;;;2.45;2.13;;;;;;;12.90;100.00;98048.44;10360342;28;20061;-74
2023/10/25 13:57:27;;;;;;;2.72;2.20;;;;;;;12.91;100.00;98042.09;10359535;28;20045;-72
2023/10/25 14:02:29;;;;;;;1.92;1.80;;;;;;;12.88;100.00;98034.44;10359118;28;20153;-74
2023/10/25 14:07:30;;;;;;;2.35;1.73;;;;;;;12.90;100.00;98027.91;10355014;28;21640;-74
2023/10/25 14:12:32;;;;;;;2.58;1.80;;;;;;;12.91;100.00;98026.06;10354785;28;20088;-70
2023/10/25 14:17:33;;;;;;;2.60;2.40;;;;;;;12.92;100.00;98011.69;10358791;28;21305;-70
2023/10/25 14:22:35;;;;;;;4.93;1.63;;;;;;;12.95;100.00;97994.44;10355054;28;20052;-68
2023/10/25 14:27:37;;;;;;;1.95;1.83;;;;;;;12.99;100.00;97985.03;10357705;28;20088;-68
2023/10/25 14:32:38;;;;;;;5.60;5.10;;;;;;;12.99;100.00;97975.19;10352770;28;20049;-70
2023/10/25 14:37:41;;;;;;;3.55;2.67;;;;;;;13.02;100.00;97979.31;10347141;28;20127;-71
2023/10/25 14:42:44;;;;;;;2.75;1.50;;;;;;;12.90;100.00;97987.03;10354659;28;21274;-70
2023/10/25 14:47:46;;;;;;;1.48;1.20;;;;;;;12.97;100.00;97977.22;10354406;28;20042;-69
2023/10/25 14:52:47;;;;;;;8.52;2.75;;;;;;;13.07;100.00;97977.69;10352762;28;20053;-69
2023/10/25 14:57:48;;;;;;;2.38;1.40;;;;;;;13.14;100.00;97968.91;10356349;28;20121;-69
2023/10/25 15:02:50;;;;;;;2.30;1.30;;;;;;;13.15;100.00;97952.69;10356662;28;20132;-72
2023/10/25 15:07:53;;;;;;;1.30;1.20;;;;;;;13.20;100.00;97946.75;10356536;28;20179;-71
2023/10/25 15:12:54;;;;;;;4.00;3.60;;;;;;;13.24;100.00;97956.00;10358695;28;20050;-73
2023/10/25 15:17:56;;;;;;;3.20;1.63;;;;;;;13.15;100.00;97941.16;10357375;28;20131;-70
2023/10/25 15:22:59;;;;;;;3.13;1.30;;;;;;;13.22;100.00;97936.69;10362338;28;20053;-71
2023/10/25 15:28:01;;;;;;;2.00;1.43;;;;;;;13.27;100.00;97934.25;10365264;28;20056;-71
2023/10/25 15:33:06;;;;;;;2.92;1.38;;;;;;;13.27;100.00;97939.63;10356315;28;20225;-70
2023/10/25 15:38:08;;;;;;;2.65;1.45;;;;;;;13.18;100.00;97916.72;10359549;28;20171;-71
2023/10/25 15:43:09;;;;;;;2.63;1.45;;;;;;;13.19;100.00;97916.53;10360922;28;20980;-70
2023/10/25 15:48:11;;;;;;;2.47;1.30;;;;;;;13.20;100.00;97917.38;10358853;28;20057;-69
2023/10/25 15:53:12;;;;;;;2.40;1.58;;;;;;;13.12;100.00;97905.00;10360080;28;20045;-71
2023/10/25 15:58:18;;;;;;;2.05;1.17;;;;;;;13.19;100.00;97905.03;10359654;28;20057;-67
2023/10/25 16:03:20;;;;;;;1.50;1.25;;;;;;;13.25;100.00;97902.38;10359800;28;20049;-69
2023/10/25 16:08:21;;;;;;;1.67;1.08;;;;;;;13.23;100.00;97888.41;10358720;28;20105;-70
2023/10/25 16:13:23;;;;;;;1.92;1.60;;;;;;;13.32;100.00;97888.25;10365623;28;20273;-70
2023/10/25 16:18:25;;;;;;;1.98;1.77;;;;;;;13.29;100.00;97878.78;10362600;28;20068;-69
2023/10/25 16:23:26;;;;;;;2.60;2.13;;;;;;;13.33;100.00;97877.38;10360904;28;20751;-71
2023/10/25 16:28:28;;;;;;;3.75;1.83;;;;;;;13.30;100.00;97877.78;10359848;28;20053;-68
2023/10/25 16:33:30;;;;;;;2.65;1.90;;;;;;;13.35;100.00;97872.66;10359364;28;21410;-69
2023/10/25 16:38:32;;;;;;;3.15;1.98;;;;;;;13.37;100.00;97870.59;10357919;28;20060;-70
2023/10/25 16:43:36;;;;;;;2.78;2.25;;;;;;;13.33;100.00;97874.69;10360425;28;20063;-70
2023/10/25 16:48:42;;;;;;;2.53;2.22;;;;;;;13.39;100.00;97873.06;10365144;28;20067;-67
2023/10/25 16:53:45;;;;;;;3.13;2.83;;;;;;;13.40;100.00;97869.41;10365469;28;20494;-68
2023/10/25 16:58:47;;;;;;;2.85;2.60;;;;;;;13.36;100.00;97879.66;10393796;28;20586;-69
2023/10/25 17:03:49;;;;;;;4.60;3.00;;;;;;;13.43;100.00;97875.16;10368056;28;20110;-69
2023/10/25 17:16:03;;;;;;;3.75;2.90;;;;;;;13.42;100.00;97884.22;11357238;23;20130;-68
2023/10/25 17:21:09;;;;;;;3.42;2.83;;;;;;;13.46;100.00;97881.13;10308561;28;20515;-69
2023/10/25 17:26:11;;;;;;;4.88;3.17;;;;;;;13.46;100.00;97875.78;10344082;28;20037;-66
2023/10/25 17:31:13;;;;;;;3.08;2.85;;;;;;;13.50;100.00;97883.22;10337777;28;20064;-67
2023/10/25 17:36:15;;;;;;;3.55;3.25;;;;;;;13.45;100.00;97869.63;10344188;28;20167;-66
2023/10/25 17:41:17;;;;;;;3.05;2.70;;;;;;;13.44;100.00;97871.47;10344146;28;20128;-68
2023/10/25 17:46:18;;;;;;;3.00;2.80;;;;;;;13.49;100.00;97870.03;10339843;28;20131;-67
2023/10/25 17:51:20;;;;;;;2.65;2.45;;;;;;;13.49;100.00;97867.38;10342031;28;20527;-68
2023/10/25 17:56:23;;;;;;;3.38;2.75;;;;;;;13.27;100.00;97835.41;10325866;28;20673;-75
2023/10/25 18:01:24;;;;;;;2.83;2.58;;;;;;;13.34;100.00;97833.59;10344297;28;20058;-68
2023/10/25 18:06:26;;;;;;;2.30;2.10;;;;;;;13.37;100.00;97856.44;10342608;28;20068;-68
2023/10/25 18:11:38;;;;;;;1.83;1.63;;;;;;;13.34;100.00;97854.97;10339095;28;20053;-68
2023/10/25 18:16:40;;;;;;;3.80;2.25;;;;;;;13.25;100.00;97846.28;10340853;28;20047;-68
2023/10/25 18:21:41;;;;;;;2.33;1.75;;;;;;;13.35;100.00;97861.97;10322460;28;20049;-68
2023/10/25 18:26:43;;;;;;;2.05;1.77;;;;;;;13.26;100.00;97847.13;10341212;28;20046;-67
2023/10/25 18:31:45;;;;;;;1.77;1.67;;;;;;;13.35;100.00;97855.81;10334960;28;20092;-69
2023/10/25 18:37:02;;;;;;;2.17;1.88;;;;;;;13.19;100.00;97848.94;10339498;28;20148;-68
2023/10/25 18:42:05;;;;;;;1.42;1.30;;;;;;;13.38;100.00;97866.09;10342477;28;20507;-68
2023/10/25 18:47:07;;;;;;;1.23;0.90;;;;;;;13.42;100.00;97860.16;10343541;28;20070;-69
2023/10/25 18:52:09;;;;;;;0.85;0.75;;;;;;;13.40;100.00;97842.66;10326517;28;20656;-69
2023/10/25 18:57:10;;;;;;;1.17;0.70;;;;;;;13.47;100.00;97861.41;10347366;28;20416;-68
2023/10/25 19:02:12;;;;;;;1.55;0.88;;;;;;;13.44;100.00;97859.97;10332461;28;20096;-68
2023/10/25 19:07:16;;;;;;;1.42;0.88;;;;;;;13.44;100.00;97843.94;10327557;28;20652;-67
2023/10/25 19:12:22;;;;;;;1.38;1.02;;;;;;;13.47;100.00;97853.41;10318854;28;20519;-68
2023/10/25 19:17:23;;;;;;;2.83;1.20;;;;;;;13.44;100.00;97855.44;10336301;28;20054;-68
2023/10/25 19:22:25;;;;;;;2.38;1.25;;;;;;;13.44;100.00;97852.75;10346286;28;20080;-67
2023/10/25 19:27:26;;;;;;;2.25;1.40;;;;;;;13.46;100.00;97862.44;10338360;28;20072;-65
2023/10/25 19:32:28;;;;;;;2.25;1.50;;;;;;;13.47;100.00;97858.75;10329288;28;20064;-67
2023/10/25 19:37:29;;;;;;;1.85;1.60;;;;;;;13.46;100.00;97873.13;10349951;28;20057;-67
2023/10/25 19:42:32;;;;;;;1.60;1.50;;;;;;;13.41;100.00;97873.72;10345994;28;20042;-69
2023/10/25 19:47:35;;;;;;;2.85;1.50;;;;;;;13.39;100.00;97873.94;10347035;28;20045;-69
2023/10/25 19:52:36;;;;;;;2.10;1.70;;;;;;;13.36;100.00;97863.63;10345276;28;20529;-68
2023/10/25 19:57:38;;;;;;;3.22;1.67;;;;;;;13.39;100.00;97879.28;10330743;28;20053;-67
2023/10/25 20:02:41;;;;;;;2.88;2.17;;;;;;;13.09;100.00;97852.81;10341753;28;20057;-69
2023/10/25 20:07:43;;;;;;;;;;;;;;;13.39;100.00;97900.66;10336031;28;20468;-67
2023/10/25 20:12:47;;;;;;;3.47;3.13;;;;;;;13.28;100.00;97898.50;10331031;28;19999;-67
2023/10/25 20:17:48;;;;;;;4.07;3.67;;;;;;;13.18;100.00;97900.69;10361216;28;20105;-65
2023/10/25 20:22:50;;;;;;;3.75;3.45;;;;;;;13.22;100.00;97909.97;10345288;28;20373;-67
2023/10/25 20:27:51;;;;;;;3.88;3.50;;;;;;;13.20;100.00;97918.19;10351416;28;20308;-67
2023/10/25 20:32:52;;;;;;;4.00;3.60;;;;;;;13.18;100.00;97916.72;10351073;28;20131;-68
2023/10/25 20:37:54;;;;;;;3.38;3.08;;;;;;;13.13;100.00;97919.19;10351696;28;20076;-68
2023/10/25 20:42:56;;;;;;;4.30;3.05;;;;;;;13.14;100.00;97928.84;10351685;28;20125;-67
2023/10/25 20:47:57;;;;;;;3.13;2.78;;;;;;;13.23;100.00;97935.69;10353935;28;20515;-66
2023/10/25 20:52:58;;;;;;;3.20;2.90;;;;;;;13.27;100.00;97936.94;10344263;28;20241;-67
2023/10/25 20:58:00;;;;;;;3.03;2.70;;;;;;;13.24;100.00;97942.66;10368553;28;20625;-66
2023/10/25 21:03:01;;;;;;;3.88;3.25;;;;;;;13.20;100.00;97944.09;10355714;28;20501;-67
2023/10/25 21:08:04;;;;;;;3.53;2.10;;;;;;;13.24;100.00;97954.19;10352433;28;20072;-67
2023/10/25 21:13:06;;;;;;;1.85;1.63;;;;;;;13.26;100.00;97962.81;10352719;28;20080;-68
2023/10/25 21:18:10;;;;;;;3.15;1.50;;;;;;;13.18;100.00;97967.47;10351209;28;20077;-67
2023/10/25 21:23:11;;;;;;;;;;;;;;;13.23;100.00;97975.75;10347911;28;20069;-68
2023/10/25 21:28:13;;;;;;;2.17;1.27;;;;;;;13.21;100.00;97983.13;10350595;28;19925;-67
2023/10/25 21:33:14;;;;;;;0.85;0.68;;;;;;;13.16;100.00;97974.88;10330184;28;20643;-68
2023/10/25 21:38:16;;;;;;;0.95;0.45;;;;;;;13.16;100.00;97982.88;10333503;28;20132;-67
2023/10/25 21:43:17;;;;;;;0.65;0.30;;;;;;;13.06;100.00;97975.22;10331490;28;20472;-65
2023/10/25 21:48:19;;;;;;;1.00;0.88;;;;;;;13.16;100.00;97996.25;10332652;28;20108;-67
2023/10/25 21:53:21;;;;;;;0.70;0.28;;;;;;;13.11;100.00;97993.34;10332888;28;20544;-69
2023/10/25 21:58:22;;;;;;;1.13;0.30;;;;;;;13.04;100.00;98001.28;10350590;28;20321;-66
2023/10/25 22:03:44;;;;;;;0.63;0.10;;;;;;;13.01;100.00;97999.81;10345487;28;20050;-66
2023/10/25 22:08:46;;;;;;;1.00;0.20;;;;;;;12.96;100.00;98007.59;10332631;28;20045;-69
2023/10/25 22:13:47;;;;;;;0.98;0.13;;;;;;;12.95;99.38;98016.63;10322925;28;20064;-67
2023/10/25 22:18:49;;;;;;;0.25;0.10;;;;;;;12.86;99.29;98028.47;10344008;28;20425;-68
2023/10/25 22:23:51;;;;;;;0.55;0.35;;;;;;;12.81;98.52;98041.59;10348735;28;20220;-68
2023/10/25 22:28:52;;;;;;;1.77;0.30;;;;;;;12.85;97.66;98054.34;10347464;28;20287;-67
2023/10/25 22:34:17;;;;;;;0.73;0.20;;;;;;;12.76;96.32;98044.00;10343182;28;20060;-67
2023/10/25 22:39:20;;;;;;;1.00;0.20;;;;;;;12.67;96.85;98035.28;10346364;28;20073;-69
2023/10/25 22:44:22;;;;;;;0.32;0.10;;;;;;;12.59;97.05;98057.59;10345724;28;20096;-67
2023/10/25 22:49:24;;;;;;;0.13;0.05;;;;;;;12.65;96.61;98067.50;10343785;28;20065;-66
2023/10/25 22:54:25;;;;;;;0.50;0.20;;;;;;;12.59;96.79;98064.78;10343939;28;20175;-69
2023/10/25 22:59:27;;;;;;;1.35;0.20;;;;;;;12.65;97.41;98072.84;10348526;28;20513;-67
2023/10/25 23:04:28;;;;;;;0.50;0.10;;;;;;;12.80;97.16;98098.66;10330739;28;20141;-67
2023/10/25 23:09:30;;;;;;;0.35;0.20;;;;;;;12.79;97.13;98095.16;10346781;28;20073;-65
2023/10/25 23:14:31;;;;;;;0.40;0.20;;;;;;;12.72;96.97;98089.75;10349170;28;20416;-68
2023/10/25 23:19:33;;;;;;;0.93;0.30;;;;;;;12.72;96.39;98096.94;10348322;28;20287;-67
2023/10/25 23:24:35;;;;;;;0.60;0.47;;;;;;;12.65;96.50;98106.72;10344237;28;20050;-66